FW5406 Weather Reports


Display with metric or nautical units.
time (UTC)temp
F
wind
direction
speed
MPH
gust
MPH
rain 1hr
in
rain 24hr
in
rain mn
in
humidity
%
barometer
mb
20210923035054 63 80 0.0 1.0 0.00 0.05 0.05 78 1025.5
20210923034546 63 78 0.0 2.0 0.00 0.05 0.05 78 1025.5
20210923034043 63 78 0.0 2.0 0.00 0.05 0.05 78 1025.4
20210923033511 63 70 0.0 1.0 0.00 0.05 0.05 78 1025.4
20210923023049 63 62 0.0 1.0 0.00 0.05 0.05 76 1024.8
20210923022503 63 62 0.0 2.0 0.00 0.05 0.05 75 1024.7
20210923012606 66 5 1.0 4.0 0.00 0.05 0.05 71 1024.5
20210923012035 66 59 1.0 4.0 0.00 0.05 0.05 71 1024.5
20210923002056 66 19 1.0 3.0 0.00 0.05 0.05 71 1024.5
20210923001510 66 25 0.0 5.0 0.00 0.05 0.05 71 1024.5
20210922231031 68 277 0.0 3.0 0.00 0.05 0.05 66 1024.3
20210922230501 68 271 0.0 4.0 0.00 0.05 0.05 66 1024.4
20210922220558 69 250 1.0 4.0 0.00 0.05 0.05 60 1023.8
20210922215537 70 225 2.0 7.0 0.00 0.05 0.05 59 1023.9
20210922215007 70 30 2.0 7.0 0.00 0.05 0.05 60 1023.7
20210922210211 68 274 1.0 6.0 0.00 0.05 0.05 65 1023.7
20210922205542 68 270 0.0 4.0 0.00 0.05 0.05 68 1023.7
20210922205001 67 262 0.0 4.0 0.00 0.05 0.05 65 1023.6
20210922195044 65 351 1.0 4.0 0.00 0.05 0.05 74 1023.0
20210922194600 65 345 1.0 4.0 0.00 0.05 0.05 74 1023.0
20210922184606 62 279 1.0 8.0 0.01 0.05 0.05 82 1023.6
20210922184035 61 315 2.0 8.0 0.01 0.05 0.05 83 1023.5
20210922183501 60 254 1.0 6.0 0.01 0.05 0.05 84 1023.5
20210922172554 59 277 0.0 2.0 0.04 0.04 0.04 86 1022.2
20210922172050 59 278 0.0 2.0 0.04 0.04 0.04 85 1022.2
20210922171523 59 140 0.0 4.0 0.04 0.04 0.04 84 1022.0
20210922155602 59 238 0.0 4.0 0.00 0.00 0.00 76 1022.1
20210922155010 59 220 1.0 4.0 0.00 0.00 0.00 75 1022.2
20210922144603 59 213 0.0 2.0 0.00 0.00 0.00 77 1020.7
20210922144004 59 213 0.0 2.0 0.00 0.00 0.00 77 1020.6
20210922132552 59 207 0.0 3.0 0.00 0.00 0.00 78 1019.4
20210922132033 59 223 1.0 3.0 0.00 0.00 0.00 78 1019.2
20210922122034 58 229 0.0 0.0 0.00 0.00 0.00 80 1018.2
20210922121502 58 229 0.0 0.0 0.00 0.00 0.00 80 1018.3
20210922112057 59 229 0.0 0.0 0.00 0.00 0.00 78 1018.1
20210922111535 58 229 0.0 1.0 0.00 0.00 0.00 79 1017.9
20210922111005 58 229 0.0 2.0 0.00 0.00 0.00 80 1018.1
20210922101624 57 229 0.0 1.0 0.00 0.00 0.00 79 1017.8
20210922101027 57 229 0.0 1.0 0.00 0.00 0.00 80 1017.9
20210922090054 57 229 0.0 0.0 0.00 0.00 0.00 81 1017.5
20210922085506 58 229 0.0 1.0 0.00 0.00 0.00 79 1017.3
20210922085021 58 229 0.0 2.0 0.00 0.00 0.00 80 1017.3
20210922080217 59 229 0.0 2.0 0.00 0.00 0.00 81 1017.4
20210922075555 59 232 0.0 1.0 0.00 0.00 0.00 82 1017.4
20210922075025 59 232 0.0 1.0 0.00 0.00 0.00 81 1017.5
20210922074505 59 232 0.0 0.0 0.00 0.00 0.00 81 1017.4
20210922074013 59 232 0.0 0.0 0.00 0.00 0.00 81 1017.4
20210922062040 62 232 0.0 0.0 0.00 0.00 0.00 78 1017.4
20210922061511 62 232 0.0 0.0 0.00 0.00 0.00 77 1017.3
20210922052058 63 232 0.0 0.0 0.00 0.00 0.00 74 1017.3
20210922051045 64 232 0.0 0.0 0.00 0.00 0.00 72 1017.4
20210922050509 65 232 0.0 0.0 0.00 0.00 0.00 72 1017.3
20210922035540 67 234 0.0 2.0 0.00 0.00 0.00 68 1017.5